createdAt,value
2023-02-06T00:02:05.447Z,0.70
2023-02-06T00:04:34.595Z,0.70
2023-02-06T00:07:03.484Z,0.70
2023-02-06T00:09:32.486Z,0.70
2023-02-06T00:12:01.256Z,0.70
2023-02-06T00:14:30.253Z,0.70
2023-02-06T00:16:59.042Z,0.70
2023-02-06T00:19:27.863Z,0.70
2023-02-06T00:21:56.698Z,0.70
2023-02-06T00:24:25.496Z,0.70
2023-02-06T00:26:54.330Z,0.70
2023-02-06T00:29:23.196Z,0.70
2023-02-06T00:31:52.019Z,0.70
2023-02-06T00:34:20.809Z,0.70
2023-02-06T00:36:49.655Z,0.70
2023-02-06T00:39:19.538Z,0.70
2023-02-06T00:41:48.409Z,0.70
2023-02-06T00:44:17.182Z,0.70
2023-02-06T00:46:45.945Z,0.70
2023-02-06T00:49:14.825Z,0.70
2023-02-06T00:51:43.845Z,0.70
2023-02-06T00:54:12.672Z,0.70
2023-02-06T00:56:43.411Z,0.70
2023-02-06T00:59:12.169Z,0.70
2023-02-06T01:01:41.991Z,0.70
2023-02-06T01:04:11.009Z,0.70
2023-02-06T01:06:40.053Z,0.70
2023-02-06T01:09:09.032Z,0.70
2023-02-06T01:11:37.890Z,0.70
2023-02-06T01:14:06.708Z,0.70
2023-02-06T01:16:35.617Z,0.70
2023-02-06T01:19:04.474Z,0.70
2023-02-06T01:21:34.606Z,0.70
2023-02-06T01:24:03.944Z,0.73
2023-02-06T01:26:32.741Z,0.70
2023-02-06T01:29:03.574Z,0.77
2023-02-06T01:31:32.819Z,0.70
2023-02-06T01:34:01.924Z,0.70
2023-02-06T01:36:30.916Z,0.70
2023-02-06T01:38:59.839Z,0.70
2023-02-06T01:41:28.795Z,0.70
2023-02-06T01:44:13.147Z,0.70
2023-02-06T01:46:44.484Z,0.70
2023-02-06T01:49:20.262Z,0.70
2023-02-06T01:51:52.309Z,0.70
2023-02-06T01:54:22.060Z,0.70
2023-02-06T01:56:58.621Z,0.70
2023-02-06T01:59:27.907Z,0.70
2023-02-06T02:01:57.643Z,0.70
2023-02-06T02:04:32.031Z,0.70
2023-02-06T02:07:32.910Z,0.70
2023-02-06T02:10:02.029Z,0.70
2023-02-06T02:12:32.165Z,0.70
2023-02-06T02:15:01.196Z,0.70
2023-02-06T02:17:52.761Z,0.70
2023-02-06T02:20:27.324Z,0.70
2023-02-06T02:23:22.324Z,0.70
2023-02-06T02:26:22.497Z,0.70
2023-02-06T02:29:09.534Z,0.70
2023-02-06T02:32:13.462Z,0.70
2023-02-06T02:35:06.409Z,0.70
2023-02-06T02:37:50.466Z,0.70
2023-02-06T02:40:29.190Z,0.70
2023-02-06T02:43:18.146Z,0.70
2023-02-06T02:45:56.770Z,0.68
2023-02-06T02:48:30.799Z,0.70
2023-02-06T02:51:00.895Z,0.70
2023-02-06T02:53:29.835Z,0.70
2023-02-06T02:56:00.550Z,0.70
2023-02-06T02:58:36.144Z,0.68
2023-02-06T03:01:10.098Z,0.70
2023-02-06T03:03:42.927Z,0.70
2023-02-06T03:06:33.398Z,0.70
2023-02-06T03:09:17.364Z,0.70
2023-02-06T03:12:10.090Z,0.70
2023-02-06T03:14:56.830Z,0.60
2023-02-06T03:17:57.943Z,0.60
2023-02-06T03:20:27.446Z,0.60
2023-02-06T03:22:58.161Z,0.60
2023-02-06T03:25:34.506Z,0.63
2023-02-06T03:28:08.992Z,0.60
2023-02-06T03:30:42.340Z,0.60
2023-02-06T03:33:14.429Z,0.68
2023-02-06T03:35:43.916Z,0.70
2023-02-06T03:38:13.789Z,0.60
2023-02-06T03:40:47.453Z,0.60
2023-02-06T03:43:19.444Z,0.50
2023-02-06T03:45:52.702Z,0.60
2023-02-06T03:48:31.547Z,0.60
2023-02-06T03:51:04.110Z,0.60
2023-02-06T03:53:36.569Z,0.57
2023-02-06T03:56:26.080Z,0.50
2023-02-06T03:58:54.941Z,0.50
2023-02-06T04:01:24.874Z,0.50
2023-02-06T04:03:54.488Z,0.45
2023-02-06T04:06:23.457Z,0.40
2023-02-06T04:08:52.358Z,0.50
2023-02-06T04:11:21.168Z,0.50
2023-02-06T04:13:50.022Z,0.60
2023-02-06T04:16:18.935Z,0.50
2023-02-06T04:18:47.824Z,0.50
2023-02-06T04:21:16.626Z,0.50
2023-02-06T04:23:45.576Z,0.60
2023-02-06T04:26:14.419Z,0.52
2023-02-06T04:28:43.185Z,0.50
2023-02-06T04:31:12.025Z,0.52
2023-02-06T04:33:40.897Z,0.50
2023-02-06T04:36:09.983Z,0.50
2023-02-06T04:38:38.713Z,0.50
2023-02-06T04:41:08.742Z,0.50
2023-02-06T04:43:37.563Z,0.52
2023-02-06T04:46:07.564Z,0.50
2023-02-06T04:48:37.752Z,0.50
2023-02-06T04:51:06.822Z,0.50
2023-02-06T04:53:35.737Z,0.50
2023-02-06T04:56:06.611Z,0.60
2023-02-06T04:58:35.832Z,0.50
2023-02-06T05:01:05.399Z,0.60
2023-02-06T05:03:34.681Z,0.50
2023-02-06T05:06:05.063Z,0.50
2023-02-06T05:08:33.904Z,0.50
2023-02-06T05:11:02.760Z,0.50
2023-02-06T05:13:31.903Z,0.57
2023-02-06T05:16:15.565Z,0.50
2023-02-06T05:18:45.732Z,0.50
2023-02-06T05:21:15.555Z,0.50
2023-02-06T05:23:44.412Z,0.50
2023-02-06T05:26:13.500Z,0.60
2023-02-06T05:28:42.488Z,0.60
2023-02-06T05:31:11.889Z,0.50
2023-02-06T05:33:40.741Z,0.60
2023-02-06T05:36:09.938Z,0.60
2023-02-06T05:38:38.757Z,0.50
2023-02-06T05:41:07.831Z,0.60
2023-02-06T05:43:36.997Z,0.40
2023-02-06T05:46:05.922Z,0.50
2023-02-06T05:48:35.527Z,0.50
2023-02-06T05:51:04.541Z,0.50
2023-02-06T05:53:33.511Z,0.50
2023-02-06T05:56:02.428Z,0.50
2023-02-06T05:58:31.553Z,0.40
2023-02-06T06:01:01.168Z,0.50
2023-02-06T06:03:33.125Z,0.40
2023-02-06T06:06:02.167Z,0.40
2023-02-06T06:08:31.190Z,0.40
2023-02-06T06:11:02.142Z,0.40
2023-02-06T06:13:31.378Z,0.40
2023-02-06T06:16:00.367Z,0.40
2023-02-06T06:18:29.249Z,0.50
2023-02-06T06:20:58.055Z,0.50
2023-02-06T06:23:26.841Z,0.50
2023-02-06T06:25:55.630Z,0.50
2023-02-06T06:28:24.479Z,0.40
2023-02-06T06:31:01.667Z,0.40
2023-02-06T06:33:30.775Z,0.50
2023-02-06T06:35:59.643Z,0.40
2023-02-06T06:38:28.432Z,0.40
2023-02-06T06:40:57.233Z,0.50
2023-02-06T06:43:26.128Z,0.43
2023-02-06T06:45:54.944Z,0.50
2023-02-06T06:48:24.016Z,0.43
2023-02-06T06:50:53.226Z,0.50
2023-02-06T06:53:22.200Z,0.50
2023-02-06T06:55:50.993Z,0.50
2023-02-06T06:58:19.853Z,0.47
2023-02-06T07:00:49.571Z,0.50
2023-02-06T07:03:18.584Z,0.50
2023-02-06T07:05:47.904Z,0.50
2023-02-06T07:08:16.744Z,0.55
2023-02-06T07:10:45.525Z,0.50
2023-02-06T07:13:16.146Z,0.50
2023-02-06T07:15:45.016Z,0.50
2023-02-06T07:18:13.975Z,0.50
2023-02-06T07:20:42.787Z,0.50
2023-02-06T07:23:11.687Z,0.50
2023-02-06T07:25:40.565Z,0.60
2023-02-06T07:28:09.680Z,0.50
2023-02-06T07:30:38.496Z,0.50
2023-02-06T07:33:07.886Z,0.50
2023-02-06T07:35:37.027Z,0.60
2023-02-06T07:38:06.073Z,0.60
2023-02-06T07:40:44.574Z,0.57
2023-02-06T07:43:15.086Z,0.60
2023-02-06T07:45:43.999Z,0.60
2023-02-06T07:48:12.917Z,0.57
2023-02-06T07:50:41.699Z,0.60
2023-02-06T07:53:10.502Z,0.60
2023-02-06T07:55:39.449Z,0.57
2023-02-06T07:58:08.307Z,0.50
2023-02-06T08:00:37.650Z,0.60
2023-02-06T08:03:07.899Z,0.60
2023-02-06T08:05:39.880Z,0.50
2023-02-06T08:08:10.385Z,0.60
2023-02-06T08:10:40.555Z,0.50
2023-02-06T08:13:09.588Z,0.60
2023-02-06T08:15:38.604Z,0.60
2023-02-06T08:18:07.741Z,0.55
2023-02-06T08:20:36.946Z,0.50
2023-02-06T08:23:05.869Z,0.60
2023-02-06T08:25:34.984Z,0.60
2023-02-06T08:28:04.407Z,0.60
2023-02-06T08:30:35.059Z,0.50
2023-02-06T08:33:04.061Z,0.50
2023-02-06T08:35:34.352Z,0.60
2023-02-06T08:38:03.414Z,0.60
2023-02-06T08:40:33.082Z,0.60
2023-02-06T08:43:02.003Z,0.60
2023-02-06T08:45:30.828Z,0.60
2023-02-06T08:47:59.701Z,0.60
2023-02-06T08:50:28.586Z,0.60
2023-02-06T08:52:57.562Z,0.60
2023-02-06T08:55:27.382Z,0.60
2023-02-06T08:57:56.282Z,0.60
2023-02-06T09:00:25.920Z,0.60
2023-02-06T09:02:55.733Z,0.60
2023-02-06T09:05:24.949Z,0.70
2023-02-06T09:07:53.874Z,0.70
2023-02-06T09:10:27.789Z,0.60
2023-02-06T09:12:58.379Z,0.70
2023-02-06T09:15:27.356Z,0.60
2023-02-06T09:17:56.308Z,0.60
2023-02-06T09:20:27.284Z,0.60
2023-02-06T09:25:25.098Z,0.68
2023-02-06T09:27:55.147Z,0.60
2023-02-06T09:30:25.249Z,0.60
2023-02-06T09:32:54.155Z,0.60
2023-02-06T09:35:23.119Z,0.60
2023-02-06T09:37:52.144Z,0.60
2023-02-06T09:40:27.594Z,0.60
2023-02-06T09:42:57.754Z,0.60
2023-02-06T09:45:30.167Z,0.60
2023-02-06T09:48:15.563Z,0.70
2023-02-06T09:50:52.204Z,0.60
2023-02-06T09:53:37.738Z,0.70
2023-02-06T09:56:33.021Z,0.60
2023-02-06T09:59:19.834Z,0.70
2023-02-06T10:02:05.723Z,0.70
2023-02-06T10:04:48.991Z,0.70
2023-02-06T10:07:42.428Z,0.70
2023-02-06T10:10:18.411Z,0.70
2023-02-06T10:12:57.908Z,0.70
2023-02-06T10:15:35.325Z,0.70
2023-02-06T10:18:12.425Z,0.70
2023-02-06T10:21:00.734Z,0.70
2023-02-06T10:23:47.384Z,0.60
2023-02-06T10:26:18.771Z,0.65
2023-02-06T10:28:56.594Z,0.70
2023-02-06T10:31:25.498Z,0.65
2023-02-06T10:34:12.793Z,0.70
2023-02-06T10:37:11.085Z,0.70
2023-02-06T10:40:19.991Z,0.70
2023-02-06T10:43:09.039Z,0.70
2023-02-06T10:46:04.453Z,0.70
2023-02-06T10:48:48.244Z,0.70
2023-02-06T10:51:25.891Z,0.70
2023-02-06T10:54:01.665Z,0.70
2023-02-06T10:56:36.581Z,0.70
2023-02-06T10:59:32.302Z,0.70
2023-02-06T11:02:12.590Z,0.70
2023-02-06T11:05:05.240Z,0.70
2023-02-06T11:07:42.120Z,0.70
2023-02-06T11:10:23.152Z,0.70
2023-02-06T11:12:55.217Z,0.70
2023-02-06T11:15:34.648Z,0.70
2023-02-06T11:18:06.952Z,0.70
2023-02-06T11:20:42.435Z,0.70
2023-02-06T11:23:22.667Z,0.70
2023-02-06T11:26:16.214Z,0.70
2023-02-06T11:28:57.212Z,0.70
2023-02-06T11:31:44.280Z,0.70
2023-02-06T11:34:33.092Z,0.70
2023-02-06T11:37:04.962Z,0.70
2023-02-06T11:39:39.392Z,0.70
2023-02-06T11:42:23.337Z,0.80
2023-02-06T11:44:53.677Z,0.70
2023-02-06T11:47:38.042Z,0.70
2023-02-06T11:50:21.000Z,0.70
2023-02-06T11:52:50.063Z,0.80
2023-02-06T11:55:22.509Z,0.80
2023-02-06T11:58:14.471Z,0.70
2023-02-06T12:01:03.353Z,0.70
2023-02-06T12:03:40.385Z,0.70
2023-02-06T12:08:48.326Z,0.80
2023-02-06T12:11:27.468Z,0.70
2023-02-06T12:14:16.879Z,0.80
2023-02-06T12:16:47.991Z,0.80
2023-02-06T12:19:22.241Z,0.70
2023-02-06T12:21:59.159Z,0.70
2023-02-06T12:24:32.897Z,0.70
2023-02-06T12:27:16.187Z,0.70
2023-02-06T12:30:07.035Z,0.70
2023-02-06T12:32:43.617Z,0.70
2023-02-06T12:37:55.894Z,0.80
2023-02-06T12:40:44.867Z,0.70
2023-02-06T12:43:19.148Z,0.80
2023-02-06T12:46:16.652Z,0.70
2023-02-06T12:49:03.398Z,0.80
2023-02-06T12:51:42.350Z,0.80
2023-02-06T12:54:17.446Z,0.80
2023-02-06T12:56:50.855Z,0.80
2023-02-06T12:59:57.904Z,0.80
2023-02-06T13:02:50.214Z,0.80
2023-02-06T13:05:31.542Z,0.80
2023-02-06T13:08:10.606Z,0.80
2023-02-06T13:10:40.893Z,0.70
2023-02-06T13:13:27.791Z,0.80
2023-02-06T13:15:58.359Z,0.70
2023-02-06T13:18:42.572Z,0.80
2023-02-06T13:21:30.254Z,0.73
2023-02-06T13:24:04.951Z,0.80
2023-02-06T13:26:57.145Z,0.80
2023-02-06T13:29:40.420Z,0.80
2023-02-06T13:32:12.820Z,0.80
2023-02-06T13:34:47.663Z,0.80
2023-02-06T13:37:28.276Z,0.80
2023-02-06T13:40:21.721Z,0.77
2023-02-06T13:43:11.752Z,0.70
2023-02-06T13:45:57.796Z,0.80
2023-02-06T13:49:04.881Z,0.80
2023-02-06T13:52:04.284Z,0.80
2023-02-06T13:55:08.282Z,0.80
2023-02-06T13:57:45.749Z,0.75
2023-02-06T14:00:26.264Z,0.80
2023-02-06T14:03:32.137Z,0.70
2023-02-06T14:06:25.102Z,0.80
2023-02-06T14:09:03.075Z,0.80
2023-02-06T14:12:11.135Z,0.80
2023-02-06T14:15:13.025Z,0.77
2023-02-06T14:18:07.721Z,0.80
2023-02-06T14:20:50.473Z,0.70
2023-02-06T14:23:33.369Z,0.80
2023-02-06T14:26:17.349Z,0.70
2023-02-06T14:29:03.919Z,0.80
2023-02-06T14:32:17.438Z,0.80
2023-02-06T14:35:20.152Z,0.70
2023-02-06T14:38:21.029Z,0.80
2023-02-06T14:40:56.150Z,0.80
2023-02-06T14:43:29.185Z,0.80
2023-02-06T14:46:07.608Z,0.80
2023-02-06T14:48:40.715Z,0.70
2023-02-06T14:51:29.718Z,0.80
2023-02-06T14:54:04.552Z,0.75
2023-02-06T14:56:39.229Z,0.80
2023-02-06T14:59:13.956Z,0.75
2023-02-06T15:01:50.054Z,0.77
2023-02-06T15:04:25.058Z,0.82
2023-02-06T15:06:58.452Z,0.70
2023-02-06T15:09:36.331Z,0.70
2023-02-06T15:12:19.113Z,0.80
2023-02-06T15:15:10.852Z,0.80
2023-02-06T15:17:40.380Z,0.70
2023-02-06T15:20:24.554Z,0.70
2023-02-06T15:23:04.969Z,0.80
2023-02-06T15:25:49.406Z,0.70
2023-02-06T15:28:21.085Z,0.80
2023-02-06T15:31:01.173Z,0.70
2023-02-06T15:33:33.772Z,0.75
2023-02-06T15:36:04.941Z,0.70
2023-02-06T15:38:34.875Z,0.70
2023-02-06T15:41:08.042Z,0.75
2023-02-06T15:43:37.359Z,0.70
2023-02-06T15:46:07.063Z,0.70
2023-02-06T15:48:43.823Z,0.80
2023-02-06T15:51:23.874Z,0.80
2023-02-06T15:54:06.624Z,0.70
2023-02-06T15:56:40.799Z,0.80
2023-02-06T15:59:22.583Z,0.70
2023-02-06T16:01:55.201Z,0.70
2023-02-06T16:04:37.781Z,0.80
2023-02-06T16:07:17.775Z,0.70
2023-02-06T16:10:04.596Z,0.80
2023-02-06T16:13:04.955Z,0.80
2023-02-06T16:15:37.152Z,0.80
2023-02-06T16:18:24.514Z,0.80
2023-02-06T16:21:11.549Z,0.80
2023-02-06T16:23:53.918Z,0.80
2023-02-06T16:26:28.446Z,0.80
2023-02-06T16:29:16.831Z,0.75
2023-02-06T16:31:46.106Z,0.80
2023-02-06T16:34:39.483Z,0.80
2023-02-06T16:37:34.583Z,0.70
2023-02-06T16:40:03.379Z,0.80
2023-02-06T16:42:36.355Z,0.80
2023-02-06T16:45:19.500Z,0.80
2023-02-06T16:47:48.308Z,0.77
2023-02-06T16:50:17.532Z,0.80
2023-02-06T16:52:57.850Z,0.70
2023-02-06T16:55:29.424Z,0.80
2023-02-06T16:58:01.193Z,0.80
2023-02-06T17:00:33.303Z,0.70
2023-02-06T17:03:02.334Z,0.70
2023-02-06T17:05:32.080Z,0.80
2023-02-06T17:08:02.721Z,0.80
2023-02-06T17:10:31.412Z,0.80
2023-02-06T17:13:00.325Z,0.80
2023-02-06T17:15:29.780Z,0.80
2023-02-06T17:17:58.579Z,0.80
2023-02-06T17:20:38.134Z,0.73
2023-02-06T17:23:07.646Z,0.80
2023-02-06T17:25:36.680Z,0.80
2023-02-06T17:28:10.541Z,0.80
2023-02-06T17:30:39.970Z,0.77
2023-02-06T17:33:09.275Z,0.80
2023-02-06T17:35:38.917Z,0.80
2023-02-06T17:38:09.793Z,0.80
2023-02-06T17:40:41.389Z,0.80
2023-02-06T17:43:10.652Z,0.80
2023-02-06T17:45:40.192Z,0.70
2023-02-06T17:48:09.340Z,0.80
2023-02-06T17:50:41.268Z,0.80
2023-02-06T17:53:14.518Z,0.70
2023-02-06T17:55:45.614Z,0.80
2023-02-06T17:58:14.473Z,0.80
2023-02-06T18:00:44.125Z,0.80
2023-02-06T18:03:17.797Z,0.80
2023-02-06T18:05:47.780Z,0.80
2023-02-06T18:08:18.899Z,0.80
2023-02-06T18:10:47.726Z,0.80
2023-02-06T18:13:16.518Z,0.80
2023-02-06T18:15:54.006Z,0.80
2023-02-06T18:18:24.860Z,0.80
2023-02-06T18:20:53.742Z,0.80
2023-02-06T18:23:22.585Z,0.70
2023-02-06T18:25:51.486Z,0.70
2023-02-06T18:28:20.549Z,0.80
2023-02-06T18:30:49.566Z,0.80
2023-02-06T18:33:18.434Z,0.80
2023-02-06T18:35:51.176Z,0.80
2023-02-06T18:38:20.166Z,0.80
2023-02-06T18:40:48.943Z,0.80
2023-02-06T18:43:17.792Z,0.80
2023-02-06T18:45:46.583Z,0.80
2023-02-06T18:48:15.407Z,0.77
2023-02-06T18:50:44.233Z,0.80
2023-02-06T18:53:13.195Z,0.80
2023-02-06T18:55:42.276Z,0.80
2023-02-06T18:58:11.841Z,0.80
2023-02-06T19:00:42.946Z,0.90
2023-02-06T19:03:12.418Z,0.80
2023-02-06T19:05:41.203Z,0.80
2023-02-06T19:08:10.034Z,0.80
2023-02-06T19:10:41.005Z,0.80
2023-02-06T19:13:09.795Z,0.80
2023-02-06T19:15:38.850Z,0.80
2023-02-06T19:18:08.471Z,0.80
2023-02-06T19:20:37.456Z,0.80
2023-02-06T19:23:06.380Z,0.80
2023-02-06T19:25:35.222Z,0.80
2023-02-06T19:28:04.032Z,0.80
2023-02-06T19:30:33.089Z,0.80
2023-02-06T19:33:01.932Z,0.80
2023-02-06T19:35:30.790Z,0.80
2023-02-06T19:38:01.364Z,0.80
2023-02-06T19:40:30.416Z,0.80
2023-02-06T19:42:59.200Z,0.80
2023-02-06T19:45:28.211Z,0.85
2023-02-06T19:47:57.697Z,0.80
2023-02-06T19:50:26.669Z,0.80
2023-02-06T19:52:55.442Z,0.80
2023-02-06T19:55:24.285Z,0.80
2023-02-06T19:57:53.186Z,0.80
2023-02-06T20:00:22.679Z,0.80
2023-02-06T20:02:52.057Z,0.80
2023-02-06T20:05:27.242Z,0.80
2023-02-06T20:07:56.283Z,0.80
2023-02-06T20:10:25.633Z,0.80
2023-02-06T20:12:55.419Z,0.80
2023-02-06T20:15:24.214Z,0.80
2023-02-06T20:17:54.474Z,0.80
2023-02-06T20:20:23.322Z,0.80
2023-02-06T20:22:52.595Z,0.80
2023-02-06T20:25:22.065Z,0.80
2023-02-06T20:27:50.860Z,0.80
2023-02-06T20:30:20.357Z,0.80
2023-02-06T20:32:49.161Z,0.80
2023-02-06T20:35:18.066Z,0.80
2023-02-06T20:37:46.857Z,0.80
2023-02-06T20:40:15.679Z,0.80
2023-02-06T20:42:45.103Z,0.80
2023-02-06T20:45:14.034Z,0.80
2023-02-06T20:47:43.193Z,0.80
2023-02-06T20:50:12.058Z,0.88
2023-02-06T20:52:41.269Z,0.80
2023-02-06T20:55:10.606Z,0.80
2023-02-06T20:57:39.488Z,0.80
2023-02-06T21:00:10.040Z,0.80
2023-02-06T21:02:39.261Z,0.80
2023-02-06T21:05:08.517Z,0.80
2023-02-06T21:07:39.429Z,0.80
2023-02-06T21:10:08.353Z,0.80
2023-02-06T21:12:37.423Z,0.90
2023-02-06T21:15:06.604Z,0.80
2023-02-06T21:17:35.575Z,0.88
2023-02-06T21:20:06.351Z,0.80
2023-02-06T21:22:35.126Z,0.80
2023-02-06T21:25:04.092Z,0.80
2023-02-06T21:27:33.226Z,0.80
2023-02-06T21:30:01.982Z,0.80
2023-02-06T21:32:32.973Z,0.80
2023-02-06T21:35:01.790Z,0.80
2023-02-06T21:37:31.906Z,0.80
2023-02-06T21:40:00.795Z,0.80
2023-02-06T21:42:31.668Z,0.80
2023-02-06T21:45:00.673Z,0.80
2023-02-06T21:47:29.508Z,0.80
2023-02-06T21:49:58.421Z,0.80
2023-02-06T21:52:27.222Z,0.80
2023-02-06T21:54:56.101Z,0.80
2023-02-06T21:57:24.799Z,0.80
2023-02-06T21:59:53.593Z,0.80
2023-02-06T22:02:23.281Z,0.80
2023-02-06T22:04:52.343Z,0.80
2023-02-06T22:07:21.147Z,0.80
2023-02-06T22:09:49.993Z,0.80
2023-02-06T22:12:18.743Z,0.80
2023-02-06T22:14:47.568Z,0.80
2023-02-06T22:17:16.388Z,0.80
2023-02-06T22:19:45.210Z,0.80
2023-02-06T22:22:14.017Z,0.80
2023-02-06T22:24:45.085Z,0.80
2023-02-06T22:27:13.988Z,0.80
2023-02-06T22:29:42.943Z,0.80
2023-02-06T22:32:11.700Z,0.80
2023-02-06T22:34:40.514Z,0.80
2023-02-06T22:37:09.454Z,0.80
2023-02-06T22:39:38.313Z,0.80
2023-02-06T22:42:07.138Z,0.80
2023-02-06T22:44:36.012Z,0.80
2023-02-06T22:47:04.840Z,0.80
2023-02-06T22:49:33.580Z,0.80
2023-02-06T22:52:02.371Z,0.80
2023-02-06T22:54:31.372Z,0.80
2023-02-06T22:57:00.213Z,0.80
2023-02-06T22:59:29.683Z,0.80
2023-02-06T23:02:00.004Z,0.80
2023-02-06T23:04:31.394Z,0.80
2023-02-06T23:07:00.281Z,0.80
2023-02-06T23:09:31.972Z,0.80
2023-02-06T23:12:01.804Z,0.80
2023-02-06T23:14:32.682Z,0.80
2023-02-06T23:17:03.237Z,0.80
2023-02-06T23:19:33.097Z,0.80
2023-02-06T23:22:02.031Z,0.80
2023-02-06T23:24:30.779Z,0.80
2023-02-06T23:26:59.562Z,0.80
2023-02-06T23:29:28.427Z,0.80
2023-02-06T23:31:57.483Z,0.80
2023-02-06T23:34:26.441Z,0.80
2023-02-06T23:36:55.301Z,0.80
2023-02-06T23:39:24.180Z,0.80
2023-02-06T23:41:53.037Z,0.80
2023-02-06T23:44:21.781Z,0.80
2023-02-06T23:46:50.638Z,0.80
2023-02-06T23:49:19.428Z,0.80
2023-02-06T23:51:48.258Z,0.80
2023-02-06T23:54:17.171Z,0.80
2023-02-06T23:56:46.029Z,0.80
2023-02-06T23:59:14.893Z,0.88
